Time;durP1;ratioP1;P1;durP2;ratioP2;P2;SDS_P1;SDS_P2;PMS_P1;PMS_P2;Temp;Humidity;BMP_temperature;BMP_pressure;BME280_temperature;BME280_humidity;BME280_pressure;Samples;Min_cycle;Max_cycle;Signal;HPM_P1;HPM_P2
2023/10/09 00:01:13;;;;;;;1.10;1.00;;;13.80;66.70;;;;;;5095559;28;20067;-66
2023/10/09 00:03:43;;;;;;;2.10;1.33;;;13.80;69.50;;;;;;5113486;28;20097;-66
2023/10/09 00:06:16;;;;;;;1.73;1.42;;;13.70;75.00;;;;;;5095043;28;20048;-68
2023/10/09 00:08:48;;;;;;;1.65;1.17;;;13.70;82.10;;;;;;5113613;28;20376;-67
2023/10/09 00:11:16;;;;;;;1.60;1.20;;;13.70;83.20;;;;;;5095207;28;20094;-67
2023/10/09 00:13:48;;;;;;;1.48;1.20;;;13.70;86.30;;;;;;5113601;28;20516;-66
2023/10/09 00:16:32;;;;;;;1.20;1.10;;;13.70;87.90;;;;;;5095197;28;20044;-66
2023/10/09 00:19:13;;;;;;;1.70;1.33;;;13.70;88.80;;;;;;5113445;28;20046;-66
2023/10/09 00:21:39;;;;;;;1.95;1.35;;;13.70;88.00;;;;;;5113221;28;20054;-66
2023/10/09 00:24:13;;;;;;;1.20;1.10;;;13.70;87.50;;;;;;5113543;28;20506;-66
2023/10/09 00:26:44;;;;;;;1.42;1.30;;;13.70;86.70;;;;;;5094879;28;20047;-66
2023/10/09 00:29:15;;;;;;;1.55;1.35;;;13.70;86.00;;;;;;5113471;28;20114;-66
2023/10/09 00:31:49;;;;;;;1.70;1.60;;;13.70;87.30;;;;;;5095182;28;20093;-66
2023/10/09 00:34:19;;;;;;;2.03;1.67;;;13.70;88.00;;;;;;5113225;28;20032;-66
2023/10/09 00:36:51;;;;;;;1.50;1.35;;;13.70;90.40;;;;;;5094911;28;20051;-66
2023/10/09 00:39:33;;;;;;;1.77;1.38;;;13.70;90.40;;;;;;5113445;28;20035;-66
2023/10/09 00:42:00;;;;;;;1.95;1.63;;;13.90;90.80;;;;;;5113331;28;20447;-66
2023/10/09 00:44:37;;;;;;;1.63;1.25;;;13.70;90.50;;;;;;5095049;28;20059;-66
2023/10/09 00:52:49;;;;;;;1.83;1.55;;;13.60;94.70;;;;;;5113224;28;20086;-66
2023/10/09 00:55:20;;;;;;;2.53;1.80;;;13.70;93.40;;;;;;5112891;28;20042;-66
2023/10/09 00:57:59;;;;;;;3.22;1.70;;;13.60;93.20;;;;;;5094996;28;20487;-66
2023/10/09 01:03:19;;;;;;;2.47;1.88;;;13.70;94.60;;;;;;5113106;28;20096;-66
2023/10/09 01:06:16;;;;;;;2.70;2.13;;;13.70;95.30;;;;;;5112669;28;20059;-66
2023/10/09 01:11:10;;;;;;;3.22;2.20;;;13.70;97.50;;;;;;5094836;28;20040;-66
2023/10/09 01:16:17;;;;;;;2.67;2.20;;;13.70;96.80;;;;;;5113237;28;20427;-68
2023/10/09 01:18:50;;;;;;;3.63;2.35;;;13.70;97.00;;;;;;5094478;28;20407;-67
2023/10/09 01:21:24;;;;;;;3.10;2.15;;;14.70;98.90;;;;;;5112988;28;20063;-68
2023/10/09 01:26:39;;;;;;;2.85;2.15;;;13.70;99.70;;;;;;5112969;28;20491;-66
2023/10/09 01:29:14;;;;;;;3.08;2.30;;;13.70;99.90;;;;;;5094983;28;20456;-66
2023/10/09 01:32:16;;;;;;;3.58;2.53;;;13.70;99.90;;;;;;5116515;28;20096;-66
2023/10/09 01:34:42;;;;;;;3.17;2.55;;;14.50;99.90;;;;;;5097674;28;20051;-66
2023/10/09 01:37:19;;;;;;;2.58;2.20;;;13.70;99.90;;;;;;5116433;28;20040;-66
2023/10/09 01:39:58;;;;;;;2.55;2.35;;;13.70;99.90;;;;;;5098169;28;20038;-66
2023/10/09 01:44:58;;;;;;;3.70;2.75;;;13.70;99.90;;;;;;5116302;28;20051;-66
2023/10/09 01:47:25;;;;;;;3.63;2.65;;;13.70;99.90;;;;;;5116180;28;20048;-66
2023/10/09 01:49:53;;;;;;;3.63;2.95;;;13.70;99.90;;;;;;5097860;28;20487;-66
2023/10/09 01:52:20;;;;;;;4.50;3.50;;;13.70;99.90;;;;;;5116125;28;20407;-66
2023/10/09 01:54:50;;;;;;;3.17;2.88;;;13.70;99.90;;;;;;5115701;28;20054;-66
2023/10/09 01:57:22;;;;;;;3.17;2.88;;;13.70;99.90;;;;;;5080608;28;20044;-66
2023/10/09 01:59:49;;;;;;;3.15;2.75;;;13.70;99.90;;;;;;5097492;28;20043;-66
2023/10/09 02:02:34;;;;;;;3.47;3.13;;;13.70;99.90;;;;;;5115757;28;20039;-66
2023/10/09 02:07:40;;;;;;;4.45;3.50;;;13.80;99.90;;;;;;5116187;28;20043;-66
2023/10/09 02:12:59;;;;;;;4.10;3.40;;;13.70;99.90;;;;;;5115776;28;20119;-66
2023/10/09 02:23:41;;;;;;;4.20;3.80;;;13.80;99.90;;;;;;5097274;28;20108;-66
2023/10/09 02:26:25;;;;;;;4.28;3.88;;;13.80;99.90;;;;;;5115500;28;20046;-66
2023/10/09 02:31:35;;;;;;;5.88;3.90;;;13.80;99.90;;;;;;5115377;28;20118;-66
2023/10/09 02:34:05;;;;;;;4.85;4.35;;;13.80;99.90;;;;;;5115315;28;20161;-66
2023/10/09 02:36:30;;;;;;;4.68;4.10;;;13.80;99.90;;;;;;5115419;28;20126;-66
2023/10/09 02:38:56;;;;;;;4.05;3.65;;;13.90;99.90;;;;;;5115222;28;20070;-66
2023/10/09 02:41:28;;;;;;;4.15;3.75;;;13.90;99.90;;;;;;5096793;28;20118;-66
2023/10/09 02:43:58;;;;;;;3.75;3.40;;;13.90;99.90;;;;;;5115141;28;20118;-66
2023/10/09 02:46:30;;;;;;;5.22;4.00;;;13.90;99.90;;;;;;5113607;28;20114;-66
2023/10/09 02:48:57;;;;;;;4.30;3.90;;;13.90;99.90;;;;;;5079610;28;20048;-66
2023/10/09 02:53:52;;;;;;;4.65;3.85;;;14.40;99.90;;;;;;5096435;28;20039;-66
2023/10/09 02:56:24;;;;;;;4.85;4.30;;;13.80;99.90;;;;;;5114867;28;20035;-66
2023/10/09 02:59:05;;;;;;;4.85;4.35;;;13.80;99.90;;;;;;5096520;28;20151;-66
2023/10/09 03:01:31;;;;;;;4.68;4.28;;;13.90;99.90;;;;;;5114771;28;20126;-66
2023/10/09 03:03:59;;;;;;;4.65;4.25;;;14.70;99.90;;;;;;5096105;28;20114;-66
2023/10/09 03:06:30;;;;;;;4.63;4.22;;;13.90;99.90;;;;;;5114655;28;20032;-66
2023/10/09 03:09:00;;;;;;;5.22;4.60;;;13.90;99.90;;;;;;5114296;28;20043;-66
2023/10/09 03:11:32;;;;;;;5.47;5.05;;;13.90;99.90;;;;;;5114302;28;20040;-66
2023/10/09 03:13:57;;;;;;;4.95;4.45;;;14.00;99.90;;;;;;5114373;28;20035;-66
2023/10/09 03:16:23;;;;;;;5.00;4.50;;;14.00;99.90;;;;;;5096276;28;20392;-66
2023/10/09 03:18:52;;;;;;;4.78;4.28;;;13.70;99.90;;;;;;5078862;28;20035;-66
2023/10/09 03:21:18;;;;;;;4.95;4.45;;;14.00;99.90;;;;;;5114055;28;20047;-66
2023/10/09 03:23:51;;;;;;;5.25;4.75;;;14.10;99.90;;;;;;5096125;28;20118;-66
2023/10/09 03:26:19;;;;;;;5.57;5.05;;;14.10;99.90;;;;;;5113861;28;20080;-66
2023/10/09 03:28:48;;;;;;;6.18;5.32;;;14.10;99.90;;;;;;5114292;28;20071;-66
2023/10/09 03:31:14;;;;;;;4.93;4.43;;;14.20;99.90;;;;;;5114178;28;20106;-66
2023/10/09 03:33:40;;;;;;;5.78;4.72;;;14.20;99.90;;;;;;5114209;28;20523;-66
2023/10/09 03:36:09;;;;;;;5.85;5.28;;;14.20;99.90;;;;;;5096027;28;20517;-66
2023/10/09 03:38:38;;;;;;;5.72;5.13;;;14.30;99.90;;;;;;5095526;28;20050;-66
2023/10/09 03:41:09;;;;;;;5.78;5.15;;;14.80;99.90;;;;;;5095882;28;20063;-66
2023/10/09 03:43:41;;;;;;;;;;;14.30;99.90;;;;;;5095951;28;20048;-65
2023/10/09 03:46:20;;;;;;;4.60;4.20;;;14.30;99.90;;;;;;5095318;28;19965;-66
2023/10/09 03:48:48;;;;;;;5.63;4.85;;;14.50;99.90;;;;;;5095415;28;20078;-66
2023/10/09 03:51:26;;;;;;;5.75;5.22;;;14.30;99.90;;;;;;5095350;28;20432;-66
2023/10/09 03:53:54;;;;;;;5.22;4.70;;;14.40;99.90;;;;;;5095368;28;20043;-66
2023/10/09 03:56:23;;;;;;;4.97;4.55;;;14.50;99.90;;;;;;5113629;28;20040;-66
2023/10/09 03:58:50;;;;;;;5.30;4.80;;;14.50;99.90;;;;;;5078399;28;20081;-66
2023/10/09 04:01:37;;;;;;;6.00;5.45;;;14.50;99.90;;;;;;5113826;28;20616;-66
2023/10/09 04:04:06;;;;;;;6.22;5.25;;;14.60;99.90;;;;;;5113570;28;20074;-66
2023/10/09 04:06:33;;;;;;;5.65;4.95;;;14.70;99.90;;;;;;5095383;28;20518;-67
2023/10/09 04:11:47;;;;;;;5.68;5.18;;;14.80;99.90;;;;;;5113661;28;20039;-68
2023/10/09 04:14:32;;;;;;;4.60;4.20;;;14.70;99.90;;;;;;5113630;28;20406;-68
2023/10/09 04:17:32;;;;;;;6.28;5.68;;;15.20;99.90;;;;;;5113595;28;20493;-67
2023/10/09 04:20:47;;;;;;;5.25;4.75;;;14.80;99.90;;;;;;5113133;28;20529;-68
2023/10/09 04:22:42;;;;;;;5.82;5.25;;;14.70;99.90;;;;;;5113101;28;20530;-68
2023/10/09 04:25:14;;;;;;;5.40;4.90;;;14.70;99.90;;;;;;5113430;28;20479;-67
2023/10/09 04:27:40;;;;;;;6.47;5.82;;;14.70;99.90;;;;;;5113137;28;20036;-70
2023/10/09 04:30:07;;;;;;;5.43;4.93;;;15.20;99.90;;;;;;5113406;28;20070;-68
2023/10/09 04:32:34;;;;;;;5.78;5.03;;;14.80;99.90;;;;;;5113396;28;20035;-67
2023/10/09 04:38:07;;;;;;;5.10;4.60;;;14.80;99.90;;;;;;5061769;28;20051;-68
2023/10/09 04:40:49;;;;;;;5.28;4.78;;;14.90;99.90;;;;;;5113086;28;20036;-67
2023/10/09 04:43:21;;;;;;;5.68;5.15;;;14.80;99.90;;;;;;5113250;28;20492;-68
2023/10/09 04:46:07;;;;;;;5.20;4.68;;;15.00;99.90;;;;;;5094792;28;20039;-66
2023/10/09 04:48:37;;;;;;;5.10;4.57;;;14.80;99.90;;;;;;5113330;28;20038;-66
2023/10/09 04:51:21;;;;;;;6.72;4.97;;;14.80;99.90;;;;;;5113249;28;20040;-66
2023/10/09 04:53:59;;;;;;;5.32;4.78;;;14.70;99.90;;;;;;5094808;28;20055;-66
2023/10/09 04:56:25;;;;;;;5.53;4.60;;;14.70;99.90;;;;;;5094757;28;20089;-66
2023/10/09 04:59:03;;;;;;;6.45;5.85;;;14.70;99.90;;;;;;5094790;28;20042;-66
2023/10/09 05:01:36;;;;;;;5.28;4.72;;;14.80;99.90;;;;;;5094625;28;20118;-66
2023/10/09 05:04:04;;;;;;;5.55;5.10;;;15.70;99.90;;;;;;5113578;28;20114;-66
2023/10/09 05:06:42;;;;;;;4.65;4.25;;;14.80;99.90;;;;;;5081692;28;20038;-66
2023/10/09 05:09:08;;;;;;;5.72;5.18;;;14.80;99.90;;;;;;5115735;28;20080;-66
2023/10/09 05:11:53;;;;;;;5.50;4.95;;;14.80;99.90;;;;;;5117011;28;20510;-66
2023/10/09 05:14:38;;;;;;;5.05;4.55;;;15.40;99.90;;;;;;5116959;28;20030;-66
2023/10/09 05:17:09;;;;;;;5.60;4.80;;;14.80;99.90;;;;;;5116973;28;20051;-66
2023/10/09 05:22:38;;;;;;;5.88;4.78;;;14.80;99.90;;;;;;5116744;28;20483;-66
2023/10/09 05:25:16;;;;;;;6.15;4.88;;;14.90;99.90;;;;;;5116685;28;20096;-66
2023/10/09 05:27:50;;;;;;;5.63;5.15;;;14.90;99.90;;;;;;5098223;28;20148;-68
2023/10/09 05:30:24;;;;;;;5.13;4.63;;;14.80;99.90;;;;;;5098364;28;20084;-67
2023/10/09 05:32:55;;;;;;;5.13;4.38;;;14.90;99.90;;;;;;5115024;28;20044;-67
2023/10/09 05:35:59;;;;;;;5.72;5.13;;;14.90;99.90;;;;;;5116323;28;20514;-68
2023/10/09 05:38:25;;;;;;;5.05;4.55;;;14.90;99.90;;;;;;5116540;28;20046;-68
2023/10/09 05:40:53;;;;;;;5.22;4.72;;;15.00;99.90;;;;;;5098181;28;20036;-70
2023/10/09 05:46:09;;;;;;;5.20;4.70;;;15.00;99.90;;;;;;5115969;28;20411;-67
2023/10/09 05:54:11;;;;;;;5.63;4.43;;;15.10;99.90;;;;;;5097608;28;20127;-67
2023/10/09 06:03:16;;;;;;;4.22;3.78;;;15.20;99.90;;;;;;5074339;28;20044;-67
2023/10/09 06:04:57;;;;;;;4.32;3.85;;;15.20;99.90;;;;;;5115322;28;20063;-74
2023/10/09 06:07:40;;;;;;;5.25;4.07;;;15.20;99.90;;;;;;5080512;28;20130;-67
2023/10/09 06:10:29;;;;;;;4.18;3.78;;;15.20;99.90;;;;;;5115395;28;20071;-67
2023/10/09 06:13:03;;;;;;;4.72;4.13;;;15.30;99.90;;;;;;5115231;28;20377;-67
2023/10/09 06:21:08;;;;;;;3.63;3.33;;;15.30;99.90;;;;;;5084108;28;20079;-67
2023/10/09 06:26:24;;;;;;;5.18;3.67;;;15.40;99.90;;;;;;5096842;28;20301;-67
2023/10/09 06:29:13;;;;;;;3.65;2.60;;;15.40;99.90;;;;;;5115429;28;20102;-67
2023/10/09 06:34:32;;;;;;;4.22;3.05;;;15.40;99.90;;;;;;5115357;28;20077;-68
2023/10/09 06:37:03;;;;;;;4.60;2.70;;;15.40;99.90;;;;;;5115156;28;20043;-67
2023/10/09 06:45:04;;;;;;;4.10;2.67;;;15.50;99.90;;;;;;5114749;28;20126;-67
2023/10/09 06:47:36;;;;;;;2.67;2.40;;;15.60;99.90;;;;;;5096478;28;20119;-66
2023/10/09 06:55:50;;;;;;;2.72;2.28;;;15.60;99.90;;;;;;5096346;28;20406;-68
2023/10/09 06:58:28;;;;;;;3.50;2.85;;;15.60;99.90;;;;;;5096690;28;20051;-67
2023/10/09 07:03:51;;;;;;;3.35;2.22;;;15.70;99.90;;;;;;5114814;28;20484;-69
2023/10/09 07:06:24;;;;;;;3.72;2.42;;;15.70;99.90;;;;;;5114760;28;20400;-67
2023/10/09 07:16:59;;;;;;;2.70;2.10;;;15.70;99.90;;;;;;5095981;28;20404;-67
2023/10/09 07:19:56;;;;;;;2.50;1.95;;;15.80;99.90;;;;;;5114416;28;20406;-69
2023/10/09 07:22:29;;;;;;;2.50;2.03;;;15.60;99.90;;;;;;5095705;28;20403;-67
2023/10/09 07:27:44;;;;;;;3.70;1.85;;;15.70;99.90;;;;;;5113490;28;20093;-67
2023/10/09 07:38:19;;;;;;;2.60;2.17;;;15.80;99.90;;;;;;5114102;28;20048;-67
2023/10/09 07:46:30;;;;;;;3.70;2.28;;;15.70;99.90;;;;;;5113648;28;20046;-67
2023/10/09 07:49:21;;;;;;;4.35;2.28;;;15.70;99.90;;;;;;5113965;28;20050;-67
2023/10/09 07:51:47;;;;;;;3.03;1.85;;;15.70;99.90;;;;;;5078625;28;20051;-67
2023/10/09 07:54:31;;;;;;;3.92;2.25;;;15.70;99.90;;;;;;5113922;28;20166;-67
2023/10/09 07:57:08;;;;;;;4.82;2.33;;;15.70;99.90;;;;;;5113844;28;20050;-67
2023/10/09 07:59:41;;;;;;;2.55;2.03;;;15.80;99.90;;;;;;5078731;28;20478;-67
2023/10/09 08:02:13;;;;;;;3.50;2.33;;;15.70;99.90;;;;;;5095226;28;20455;-67
2023/10/09 08:04:47;;;;;;;3.15;2.05;;;15.80;99.90;;;;;;5113487;28;20059;-67
2023/10/09 08:07:25;;;;;;;3.13;1.90;;;15.80;99.90;;;;;;5113712;28;20040;-66
2023/10/09 08:12:57;;;;;;;3.05;2.25;;;15.80;99.90;;;;;;5113626;28;20051;-66
2023/10/09 08:18:14;;;;;;;3.17;1.88;;;15.90;99.90;;;;;;5113488;28;20120;-67
2023/10/09 08:23:33;;;;;;;3.47;2.20;;;15.90;99.90;;;;;;5113516;28;20286;-67
2023/10/09 08:26:12;;;;;;;2.75;1.83;;;16.00;99.90;;;;;;5113470;28;20116;-67
2023/10/09 08:28:39;;;;;;;3.45;1.70;;;15.90;99.90;;;;;;5094822;28;20119;-66
2023/10/09 08:33:58;;;;;;;;;;;15.90;99.90;;;;;;5113735;28;20414;-66
2023/10/09 08:36:28;;;;;;;4.18;2.10;;;15.90;99.90;;;;;;5113463;28;20400;-66
2023/10/09 08:39:14;;;;;;;3.30;1.95;;;16.00;99.90;;;;;;5115444;28;20096;-66
2023/10/09 08:41:40;;;;;;;2.67;1.95;;;16.00;99.90;;;;;;5117465;28;20047;-66
2023/10/09 08:44:07;;;;;;;3.45;2.22;;;16.00;99.90;;;;;;5098698;28;20144;-67
2023/10/09 08:46:33;;;;;;;3.97;1.70;;;16.00;99.90;;;;;;5116311;28;20116;-67
2023/10/09 08:48:59;;;;;;;3.25;2.50;;;16.00;99.90;;;;;;5098639;28;20464;-67
2023/10/09 08:51:27;;;;;;;2.03;1.45;;;16.00;99.90;;;;;;5117254;28;20040;-66
2023/10/09 08:53:53;;;;;;;2.60;1.73;;;16.40;99.90;;;;;;5116871;28;20126;-67
2023/10/09 08:56:24;;;;;;;3.63;2.15;;;16.00;99.90;;;;;;5117102;28;20044;-67
2023/10/09 08:58:55;;;;;;;4.03;2.25;;;16.00;99.90;;;;;;5117123;28;20388;-67
2023/10/09 09:01:21;;;;;;;3.55;2.20;;;16.00;99.90;;;;;;5117053;28;20386;-67
2023/10/09 09:03:50;;;;;;;3.17;2.28;;;16.00;99.90;;;;;;5116576;28;20087;-66
2023/10/09 09:06:19;;;;;;;4.00;2.63;;;16.00;99.90;;;;;;5098393;28;20043;-67
2023/10/09 09:08:45;;;;;;;2.38;1.80;;;15.90;99.90;;;;;;5098635;28;20399;-69
2023/10/09 09:11:29;;;;;;;3.50;1.90;;;16.70;99.90;;;;;;5116612;28;20047;-70
2023/10/09 09:13:58;;;;;;;3.03;1.98;;;15.90;99.90;;;;;;5098242;28;20036;-67
2023/10/09 09:16:31;;;;;;;2.92;1.60;;;15.90;99.90;;;;;;5116583;28;20044;-69
2023/10/09 09:21:39;;;;;;;2.03;1.58;;;15.90;99.90;;;;;;5116713;28;20055;-66
2023/10/09 09:24:16;;;;;;;3.63;2.00;;;15.90;99.90;;;;;;5098355;28;20043;-66
2023/10/09 09:26:46;;;;;;;2.22;1.88;;;16.00;99.90;;;;;;5116296;28;20096;-64
2023/10/09 09:29:19;;;;;;;3.53;1.77;;;16.00;99.90;;;;;;5098358;28;20071;-65
2023/10/09 09:32:15;;;;;;;2.25;1.73;;;16.00;99.90;;;;;;5081486;28;20051;-67
2023/10/09 09:34:55;;;;;;;3.40;1.77;;;16.00;99.90;;;;;;5098264;28;20518;-65
2023/10/09 09:37:28;;;;;;;2.65;1.85;;;16.10;99.90;;;;;;5116549;28;20039;-68
2023/10/09 09:39:57;;;;;;;2.00;1.70;;;16.00;99.90;;;;;;5116321;28;20047;-67
2023/10/09 09:42:27;;;;;;;2.47;1.60;;;16.10;99.90;;;;;;5116363;28;20043;-68
2023/10/09 09:44:52;;;;;;;3.20;2.03;;;16.10;99.90;;;;;;5097857;28;20471;-66
2023/10/09 09:47:27;;;;;;;2.80;2.08;;;16.10;99.90;;;;;;5097583;28;20042;-66
2023/10/09 09:50:01;;;;;;;3.03;2.20;;;16.10;99.90;;;;;;5115407;28;20453;-66
2023/10/09 09:52:29;;;;;;;2.92;1.63;;;16.10;99.90;;;;;;5116147;28;20403;-66
2023/10/09 09:54:55;;;;;;;3.33;2.15;;;16.00;99.90;;;;;;5097513;28;20036;-66
2023/10/09 09:57:26;;;;;;;2.45;1.42;;;16.20;99.90;;;;;;5116062;28;20487;-66
2023/10/09 09:59:55;;;;;;;2.17;1.70;;;16.20;99.90;;;;;;5116002;28;20062;-66
2023/10/09 10:02:33;;;;;;;2.00;1.63;;;16.20;99.90;;;;;;5097466;28;20091;-66
2023/10/09 10:05:03;;;;;;;2.53;1.80;;;16.30;99.90;;;;;;5097196;28;20419;-66
2023/10/09 10:07:39;;;;;;;2.63;1.83;;;16.30;99.90;;;;;;5115760;28;20036;-66
2023/10/09 10:10:55;;;;;;;1.98;1.73;;;16.40;99.90;;;;;;5097188;28;20042;-66
2023/10/09 10:13:43;;;;;;;2.10;1.83;;;16.40;99.90;;;;;;5097514;28;20478;-68
2023/10/09 10:16:55;;;;;;;2.90;1.70;;;16.40;99.90;;;;;;5097396;28;20073;-67
2023/10/09 10:19:00;;;;;;;3.38;1.73;;;16.50;99.90;;;;;;5101008;28;20051;-67
2023/10/09 10:21:38;;;;;;;2.35;1.70;;;16.80;99.90;;;;;;5115549;28;20046;-72
2023/10/09 10:24:09;;;;;;;2.63;1.90;;;16.40;99.90;;;;;;5080130;28;20044;-67
2023/10/09 10:26:36;;;;;;;2.47;1.67;;;16.50;99.90;;;;;;5096976;28;20082;-67
2023/10/09 10:29:22;;;;;;;3.63;1.88;;;16.50;99.90;;;;;;5115390;28;20031;-67
2023/10/09 10:32:01;;;;;;;2.10;1.90;;;16.30;99.90;;;;;;5115343;28;20054;-66
2023/10/09 10:34:55;;;;;;;2.33;1.50;;;16.60;99.90;;;;;;5096859;28;20055;-66
2023/10/09 10:37:51;;;;;;;1.90;1.33;;;16.80;99.90;;;;;;5115391;28;20044;-66
2023/10/09 10:40:46;;;;;;;3.50;1.85;;;;;;;;;;5115259;28;20043;-66
2023/10/09 10:43:31;;;;;;;3.03;1.77;;;16.60;99.90;;;;;;5113091;28;20056;-66
2023/10/09 10:46:05;;;;;;;2.45;1.65;;;16.60;99.90;;;;;;5115045;28;20051;-66
2023/10/09 10:48:38;;;;;;;2.95;1.80;;;16.60;99.90;;;;;;5096846;28;20399;-66
2023/10/09 10:51:04;;;;;;;4.22;2.33;;;16.60;99.90;;;;;;5096779;28;20043;-66
2023/10/09 10:53:47;;;;;;;2.50;1.88;;;16.60;99.90;;;;;;5096667;28;20532;-66
2023/10/09 11:04:38;;;;;;;2.60;1.55;;;16.70;99.90;;;;;;5114465;28;20055;-66
2023/10/09 11:07:24;;;;;;;2.72;1.63;;;16.50;99.90;;;;;;5096429;28;20399;-66
2023/10/09 11:12:42;;;;;;;2.97;1.63;;;16.90;99.90;;;;;;5114337;28;20068;-66
2023/10/09 11:15:29;;;;;;;2.97;1.55;;;16.50;99.90;;;;;;5079450;28;20475;-64
2023/10/09 11:28:57;;;;;;;2.65;2.10;;;16.80;99.90;;;;;;5114301;28;20043;-66
2023/10/09 11:31:23;;;;;;;2.58;1.63;;;16.50;99.90;;;;;;5095755;28;20040;-66
2023/10/09 11:33:53;;;;;;;3.13;1.83;;;16.50;99.90;;;;;;5114196;28;20610;-66
2023/10/09 11:36:32;;;;;;;3.05;1.90;;;16.50;99.90;;;;;;5113937;28;20089;-66
2023/10/09 11:39:17;;;;;;;2.22;1.48;;;16.50;99.90;;;;;;5114128;28;20063;-66
2023/10/09 11:41:44;;;;;;;2.67;1.65;;;16.90;99.90;;;;;;5095581;28;20039;-66
2023/10/09 11:44:33;;;;;;;2.78;1.73;;;16.60;99.90;;;;;;5114023;28;20043;-66
2023/10/09 11:52:35;;;;;;;1.67;1.40;;;16.50;99.90;;;;;;5113547;28;20039;-66
2023/10/09 11:55:02;;;;;;;2.03;1.50;;;16.50;99.90;;;;;;5113871;28;20062;-66
2023/10/09 11:57:33;;;;;;;3.63;1.85;;;16.60;99.90;;;;;;5078633;28;20075;-68
2023/10/09 12:00:00;;;;;;;2.22;1.60;;;16.60;99.90;;;;;;5113738;28;20046;-70
2023/10/09 12:02:26;;;;;;;3.05;1.33;;;16.50;99.90;;;;;;5113484;28;20526;-67
2023/10/09 12:04:54;;;;;;;2.08;1.40;;;16.50;99.90;;;;;;5095135;28;20437;-67
2023/10/09 12:07:22;;;;;;;2.13;1.48;;;16.60;99.90;;;;;;5113689;28;20044;-67
2023/10/09 12:09:48;;;;;;;1.60;1.00;;;17.30;99.90;;;;;;5113379;28;20082;-66
2023/10/09 12:12:14;;;;;;;2.08;1.15;;;16.80;99.90;;;;;;5113656;28;20071;-67
2023/10/09 12:14:39;;;;;;;2.35;1.23;;;17.00;99.90;;;;;;5113199;28;20518;-66
2023/10/09 12:17:08;;;;;;;2.03;1.27;;;18.00;99.90;;;;;;5113429;28;20069;-65
2023/10/09 12:19:38;;;;;;;3.78;1.55;;;17.20;99.90;;;;;;5113584;28;20043;-65
2023/10/09 12:22:15;;;;;;;1.50;0.90;;;17.20;99.90;;;;;;5113476;28;20387;-65
2023/10/09 12:24:43;;;;;;;1.40;1.00;;;17.20;99.90;;;;;;5113481;28;20126;-64
2023/10/09 12:27:11;;;;;;;2.33;1.10;;;17.30;99.90;;;;;;5113497;28;20497;-66
2023/10/09 12:29:37;;;;;;;1.80;1.05;;;17.20;99.90;;;;;;5113469;28;20036;-66
2023/10/09 12:32:03;;;;;;;1.58;1.23;;;17.20;99.90;;;;;;5113430;28;20081;-66
2023/10/09 12:34:30;;;;;;;1.80;1.10;;;17.20;99.90;;;;;;5113127;28;20031;-66
2023/10/09 12:37:02;;;;;;;1.75;1.20;;;17.20;99.90;;;;;;5094783;28;20079;-66
2023/10/09 12:39:33;;;;;;;1.10;0.90;;;17.40;99.90;;;;;;5095151;28;20047;-66
2023/10/09 12:42:06;;;;;;;2.30;1.10;;;17.20;99.90;;;;;;5113285;28;20042;-66
2023/10/09 12:44:42;;;;;;;3.13;1.55;;;17.00;99.90;;;;;;5113303;28;20079;-66
2023/10/09 12:47:11;;;;;;;1.05;0.90;;;16.90;99.90;;;;;;5095103;28;20118;-66
2023/10/09 12:49:40;;;;;;;1.20;0.88;;;17.30;99.90;;;;;;5113259;28;20043;-66
2023/10/09 12:52:16;;;;;;;1.67;1.10;;;17.30;99.90;;;;;;5113313;28;20042;-66
2023/10/09 12:54:47;;;;;;;2.42;1.13;;;17.30;99.90;;;;;;5095247;28;20039;-66
2023/10/09 12:57:13;;;;;;;0.70;0.70;;;17.40;99.90;;;;;;5113036;28;20127;-67
2023/10/09 12:59:45;;;;;;;1.02;0.90;;;17.60;99.90;;;;;;5113156;28;20051;-64
2023/10/09 13:02:12;;;;;;;0.90;0.70;;;17.90;99.90;;;;;;5113142;28;20104;-64
2023/10/09 13:04:41;;;;;;;2.70;1.40;;;17.10;99.90;;;;;;5112884;28;20131;-64
2023/10/09 13:07:07;;;;;;;1.15;0.82;;;17.20;99.90;;;;;;5094408;28;20040;-64
2023/10/09 13:09:42;;;;;;;0.50;0.50;;;17.40;99.90;;;;;;5112788;28;20110;-64
2023/10/09 13:12:09;;;;;;;3.22;1.15;;;17.50;99.90;;;;;;5113039;28;20078;-64
2023/10/09 13:14:35;;;;;;;2.55;1.15;;;17.50;99.90;;;;;;5094555;28;20042;-64
2023/10/09 13:17:09;;;;;;;2.50;1.23;;;;;;;;;;5094861;28;20052;-64
2023/10/09 13:19:35;;;;;;;1.25;0.70;;;;;;;;;;5111583;28;20051;-64
2023/10/09 13:22:03;;;;;;;1.10;0.80;;;;;;;;;;5094753;28;20077;-64
2023/10/09 13:24:30;;;;;;;1.35;0.80;;;;;;;;;;5111504;28;20044;-65
2023/10/09 13:26:58;;;;;;;1.27;1.15;;;;;;;;;;5116424;28;20122;-66
2023/10/09 13:29:25;;;;;;;3.13;1.23;;;;;;;;;;5116624;28;20372;-66
2023/10/09 13:32:02;;;;;;;1.40;0.80;;;;;;;;;;5116145;28;20036;-66
2023/10/09 13:34:28;;;;;;;1.88;0.75;;;;;;;;;;5116552;28;20504;-66
2023/10/09 13:36:55;;;;;;;0.95;0.80;;;;;;;;;;5116632;28;20046;-65
2023/10/09 13:41:48;;;;;;;0.95;0.75;;;;;;;;;;5098258;28;20097;-68
2023/10/09 13:44:14;;;;;;;1.10;0.63;;;;;;;;;;5098183;28;20155;-65
2023/10/09 13:46:44;;;;;;;1.35;0.85;;;;;;;;;;5115972;28;20070;-66
2023/10/09 13:49:13;;;;;;;1.13;0.63;;;;;;;;;;5115166;28;20046;-66
2023/10/09 13:51:46;;;;;;;0.60;0.50;;;;;;;;;;5114964;28;20044;-65
2023/10/09 13:57:10;;;;;;;1.45;0.80;;;;;;;;;;5102520;28;20097;-65
2023/10/09 13:59:42;;;;;;;1.35;0.88;;;;;;;;;;5097629;28;20058;-65
2023/10/09 14:02:16;;;;;;;0.90;0.90;;;;;;;;;;5116043;28;20504;-65
2023/10/09 14:04:43;;;;;;;1.00;0.93;;;;;;;;;;5115743;28;20059;-66
2023/10/09 14:07:09;;;;;;;2.40;0.90;;;;;;;;;;5114446;28;20052;-67
2023/10/09 14:09:38;;;;;;;0.90;0.82;;;;;;;;;;5097440;28;20088;-67
2023/10/09 14:12:11;;;;;;;0.93;0.80;;;;;;;;;;5115893;28;20119;-67
2023/10/09 14:14:47;;;;;;;0.98;0.80;;;;;;;;;;5097509;28;20035;-67
2023/10/09 14:17:13;;;;;;;0.73;0.73;;;;;;;;;;5114241;28;20051;-66
2023/10/09 14:19:49;;;;;;;0.80;0.70;;;;;;;;;;5115722;28;20119;-67
2023/10/09 14:22:16;;;;;;;1.13;0.93;;;;;;;;;;5115628;28;20043;-67
2023/10/09 14:24:45;;;;;;;0.93;0.77;;;;;;;;;;5097314;28;20038;-67
2023/10/09 14:27:17;;;;;;;1.80;0.60;;;;;;;;;;5115057;28;20044;-67
2023/10/09 14:29:44;;;;;;;0.75;0.60;;;;;;;;;;5113946;28;20407;-66
2023/10/09 14:32:13;;;;;;;0.80;0.50;;;;;;;;;;5113874;28;20040;-67
2023/10/09 14:34:43;;;;;;;0.85;0.70;;;;;;;;;;5113928;28;20039;-68
2023/10/09 14:37:12;;;;;;;0.85;0.70;;;;;;;;;;5115041;28;20429;-66
2023/10/09 14:39:39;;;;;;;2.28;1.13;;;;;;;;;;5115344;28;20040;-73
2023/10/09 14:42:09;;;;;;;1.08;0.70;;;;;;;;;;5113653;28;20457;-67
2023/10/09 14:44:40;;;;;;;1.43;0.70;;;;;;;;;;5115316;28;20047;-67
2023/10/09 14:47:06;;;;;;;0.80;0.63;;;;;;;;;;5096660;28;20052;-68
2023/10/09 14:49:36;;;;;;;0.95;0.80;;;;;;;;;;5096942;28;20079;-66
2023/10/09 14:52:03;;;;;;;0.68;0.60;;;;;;;;;;5115056;28;20082;-66
2023/10/09 14:54:29;;;;;;;1.08;0.75;;;;;;;;;;5114759;28;20036;-66
2023/10/09 14:56:56;;;;;;;1.15;0.82;;;;;;;;;;5114626;28;20039;-66
2023/10/09 14:59:22;;;;;;;1.73;0.98;;;;;;;;;;5114920;28;20456;-66
2023/10/09 15:01:50;;;;;;;0.90;0.60;;;;;;;;;;5096284;28;20081;-66
2023/10/09 15:04:16;;;;;;;0.85;0.77;;;;;;;;;;5114380;28;20048;-67
2023/10/09 15:06:42;;;;;;;0.73;0.73;;;;;;;;;;5113176;28;20051;-68
2023/10/09 15:09:09;;;;;;;1.88;1.02;;;;;;;;;;5114801;28;20451;-67
2023/10/09 15:11:37;;;;;;;1.80;1.10;;;;;;;;;;5113493;28;20495;-67
2023/10/09 15:14:05;;;;;;;1.48;1.00;;;;;;;;;;5114310;28;20406;-69
2023/10/09 15:16:32;;;;;;;1.23;1.08;;;;;;;;;;5114366;28;20039;-73
2023/10/09 15:18:58;;;;;;;1.90;1.13;;;;;;;;;;5114276;28;20036;-68
2023/10/09 15:21:28;;;;;;;0.80;0.80;;;;;;;;;;5114418;28;20047;-66
2023/10/09 15:23:55;;;;;;;0.70;0.68;;;;;;;;;;5113017;28;20040;-66
2023/10/09 15:26:21;;;;;;;0.88;0.80;;;;;;;;;;5114333;28;20032;-66
2023/10/09 15:28:50;;;;;;;1.30;0.73;;;;;;;;;;5112772;28;20379;-67
2023/10/09 15:31:16;;;;;;;1.05;0.80;;;;;;;;;;5114287;28;20218;-67
2023/10/09 15:33:43;;;;;;;1.17;0.70;;;;;;;;;;5112646;28;20035;-66
2023/10/09 15:36:13;;;;;;;1.80;0.73;;;;;;;;;;5095671;28;20047;-66
2023/10/09 15:38:39;;;;;;;1.48;0.93;;;;;;;;;;5114221;28;20128;-66
2023/10/09 15:41:08;;;;;;;1.30;1.00;;;;;;;;;;5095664;28;20093;-66
2023/10/09 15:43:36;;;;;;;0.70;0.60;;;;;;;;;;5114077;28;20124;-67
2023/10/09 15:46:02;;;;;;;1.55;0.80;;;;;;;;;;5095462;28;20039;-66
2023/10/09 15:48:28;;;;;;;1.50;0.85;;;;;;;;;;5094823;28;20036;-67
2023/10/09 15:50:54;;;;;;;0.73;0.68;;;;;;;;;;5113631;28;20074;-66
2023/10/09 15:53:21;;;;;;;1.35;0.75;;;;;;;;;;5095478;28;20071;-66
2023/10/09 15:55:57;;;;;;;1.08;0.75;;;;;;;;;;5113720;28;20116;-67
2023/10/09 15:58:23;;;;;;;1.02;0.93;;;;;;;;;;5112380;28;20101;-66
2023/10/09 16:00:50;;;;;;;2.95;1.23;;;;;;;;;;5112272;28;20040;-66
2023/10/09 16:03:16;;;;;;;0.82;0.70;;;;;;;;;;5113488;28;20101;-66
2023/10/09 16:05:42;;;;;;;1.00;0.73;;;;;;;;;;5095197;28;20454;-66
2023/10/09 16:08:09;;;;;;;1.42;0.95;;;;;;;;;;5113698;28;20075;-66
2023/10/09 16:10:35;;;;;;;1.25;0.90;;;;;;;;;;5095477;28;20039;-66
2023/10/09 16:13:01;;;;;;;1.67;0.68;;;;;;;;;;5113678;28;20040;-66